Time;durP1;ratioP1;P1;durP2;ratioP2;P2;SDS_P1;SDS_P2;PMS_P1;PMS_P2;Temp;Humidity;BMP_temperature;BMP_pressure;BME280_temperature;BME280_humidity;BME280_pressure;Samples;Min_cycle;Max_cycle;Signal;HPM_P1;HPM_P2
2022/04/29 00:00:43;;;;;;;11.98;10.25;;;;;;;11.41;56.09;95303.59;5038903;28;20040;-72
2022/04/29 00:03:09;;;;;;;10.27;9.25;;;;;;;11.43;56.13;95295.69;5058881;28;20032;-72
2022/04/29 00:05:35;;;;;;;13.05;10.13;;;;;;;11.25;56.92;95303.13;5065810;28;20433;-72
2022/04/29 00:08:05;;;;;;;11.18;9.85;;;;;;;11.30;56.48;95296.63;5077490;28;20032;-72
2022/04/29 00:10:34;;;;;;;10.95;8.98;;;;;;;11.35;56.44;95297.09;5069686;28;20032;-72
2022/04/29 00:13:00;;;;;;;11.30;9.77;;;;;;;11.42;56.54;95292.22;5076481;28;20036;-72
2022/04/29 00:15:25;;;;;;;11.50;9.80;;;;;;;11.40;56.46;95294.13;5088627;28;20040;-72
2022/04/29 00:17:51;;;;;;;10.70;9.18;;;;;;;11.46;56.17;95293.66;5088441;28;20073;-72
2022/04/29 00:20:16;;;;;;;10.70;8.52;;;;;;;11.36;56.49;95295.31;5081799;28;20028;-72
2022/04/29 00:22:44;;;;;;;10.57;9.13;;;;;;;11.24;56.49;95285.88;5076841;28;20020;-72
2022/04/29 00:25:09;;;;;;;10.80;9.45;;;;;;;11.18;56.82;95290.59;5062677;28;20514;-72
2022/04/29 00:27:35;;;;;;;10.45;9.35;;;;;;;11.17;57.01;95293.31;5077785;28;20039;-72
2022/04/29 00:30:01;;;;;;;12.88;10.05;;;;;;;11.23;57.27;95285.06;5084228;28;20040;-72
2022/04/29 00:32:27;;;;;;;14.05;10.07;;;;;;;11.29;56.56;95286.34;5081769;28;20032;-72
2022/04/29 00:34:52;;;;;;;10.20;9.10;;;;;;;11.27;56.75;95293.44;5078325;28;20053;-72
2022/04/29 00:37:18;;;;;;;10.65;9.48;;;;;;;11.30;56.85;95285.41;5088819;28;20043;-72
2022/04/29 00:39:43;;;;;;;9.65;8.65;;;;;;;11.18;57.05;95290.59;5058087;28;20402;-72
2022/04/29 00:42:18;;;;;;;10.20;8.70;;;;;;;11.17;57.22;95290.72;5083858;28;20032;-72
2022/04/29 00:44:44;;;;;;;10.40;8.50;;;;;;;11.19;56.92;95287.03;5077923;28;20071;-72
2022/04/29 00:47:11;;;;;;;11.73;9.75;;;;;;;11.26;56.91;95271.81;5072396;28;20548;-72
2022/04/29 00:49:37;;;;;;;10.70;8.82;;;;;;;11.21;57.13;95280.91;5081600;28;20418;-72
2022/04/29 00:52:06;;;;;;;11.52;9.55;;;;;;;11.10;57.24;95284.34;5045933;28;20040;-72
2022/04/29 00:54:32;;;;;;;10.77;9.68;;;;;;;11.00;57.96;95279.00;5054602;28;20070;-72
2022/04/29 00:56:57;;;;;;;10.70;9.50;;;;;;;11.03;57.82;95284.00;5070597;28;20086;-72
2022/04/29 00:59:33;;;;;;;10.45;9.07;;;;;;;10.99;57.97;95274.78;5054244;28;20036;-72
2022/04/29 01:01:59;;;;;;;13.27;9.52;;;;;;;10.96;58.13;95269.81;5040266;28;20036;-72
2022/04/29 01:04:35;;;;;;;10.60;9.07;;;;;;;10.99;57.71;95266.16;5067854;28;20043;-72
2022/04/29 01:07:02;;;;;;;10.63;9.40;;;;;;;11.05;57.76;95274.28;5071840;28;20024;-72
2022/04/29 01:09:27;;;;;;;10.07;8.95;;;;;;;11.05;57.76;95266.50;5054023;28;20033;-72
2022/04/29 01:11:52;;;;;;;11.27;9.57;;;;;;;11.08;57.56;95263.66;5065746;28;20073;-72
2022/04/29 01:14:18;;;;;;;10.68;9.50;;;;;;;11.09;57.36;95267.09;5044289;28;20037;-72
2022/04/29 01:16:43;;;;;;;10.13;9.05;;;;;;;11.12;57.38;95259.88;5073854;28;20075;-72
2022/04/29 01:19:09;;;;;;;11.18;10.02;;;;;;;11.09;57.59;95260.13;5070471;28;20048;-72
2022/04/29 01:21:34;;;;;;;11.52;9.07;;;;;;;11.15;57.01;95264.03;5076943;28;20020;-72
2022/04/29 01:23:59;;;;;;;10.00;8.90;;;;;;;11.20;57.15;95267.09;5073545;28;20043;-72
2022/04/29 01:26:25;;;;;;;11.25;9.65;;;;;;;11.09;57.33;95254.94;5070702;28;20164;-72
2022/04/29 01:28:51;;;;;;;10.63;9.52;;;;;;;11.13;57.22;95263.31;5063523;28;20039;-72
2022/04/29 01:31:16;;;;;;;10.65;9.55;;;;;;;11.15;57.36;95258.81;5072428;28;20477;-72
2022/04/29 01:33:43;;;;;;;10.48;9.30;;;;;;;11.15;57.13;95254.44;5056158;28;20073;-72
2022/04/29 01:36:09;;;;;;;10.13;9.13;;;;;;;11.25;57.13;95264.13;5053245;28;20048;-72
2022/04/29 01:38:35;;;;;;;9.90;8.90;;;;;;;11.28;57.11;95258.66;5053810;28;20028;-72
2022/04/29 01:41:01;;;;;;;11.93;9.30;;;;;;;11.31;56.88;95255.81;5054351;28;20099;-72
2022/04/29 01:43:26;;;;;;;10.88;9.13;;;;;;;11.25;56.79;95243.31;5054393;28;20127;-72
2022/04/29 01:45:54;;;;;;;10.45;9.32;;;;;;;11.27;56.68;95246.63;5072585;28;20032;-72
2022/04/29 01:48:19;;;;;;;11.27;9.95;;;;;;;11.23;57.12;95260.81;5070887;28;20035;-72
2022/04/29 01:50:45;;;;;;;10.50;9.35;;;;;;;11.25;56.92;95262.34;5066522;28;20029;-72
2022/04/29 01:53:10;;;;;;;11.25;9.25;;;;;;;11.15;56.96;95261.41;5086363;28;20021;-72
2022/04/29 01:55:35;;;;;;;12.18;9.88;;;;;;;11.02;57.62;95268.50;5053191;28;20067;-72
2022/04/29 01:58:01;;;;;;;11.45;9.77;;;;;;;11.01;57.38;95270.28;5069524;28;20047;-72
2022/04/29 02:00:26;;;;;;;10.68;9.35;;;;;;;11.05;57.75;95263.91;5072836;28;20027;-72
2022/04/29 02:02:52;;;;;;;10.25;9.13;;;;;;;11.09;57.68;95265.31;5086765;28;20127;-72
2022/04/29 02:05:18;;;;;;;11.18;9.07;;;;;;;11.09;57.68;95262.72;5076980;28;20036;-72
2022/04/29 02:07:44;;;;;;;10.18;8.93;;;;;;;11.14;57.63;95271.00;5085825;28;20114;-72
2022/04/29 02:10:10;;;;;;;10.73;9.45;;;;;;;11.12;57.84;95267.69;5091308;28;20101;-72
2022/04/29 02:12:35;;;;;;;11.52;10.23;;;;;;;11.16;57.63;95271.69;5070849;28;20489;-72
2022/04/29 02:15:01;;;;;;;12.02;10.07;;;;;;;11.06;57.88;95270.78;5086755;28;20028;-72
2022/04/29 02:17:27;;;;;;;9.93;8.63;;;;;;;11.11;57.52;95268.63;5055785;28;20502;-72
2022/04/29 02:19:52;;;;;;;10.95;9.10;;;;;;;11.07;57.72;95264.59;5070545;28;20071;-72
2022/04/29 02:22:17;;;;;;;10.35;9.18;;;;;;;11.10;57.98;95272.16;5079464;28;20047;-72
2022/04/29 02:24:43;;;;;;;11.32;9.43;;;;;;;11.11;57.78;95268.63;5088917;28;20032;-72
2022/04/29 02:27:08;;;;;;;10.85;9.50;;;;;;;11.13;57.81;95277.13;5072214;28;20024;-72
2022/04/29 02:29:35;;;;;;;11.63;9.82;;;;;;;11.16;57.95;95273.47;5074298;28;20029;-72
2022/04/29 02:32:01;;;;;;;14.88;9.27;;;;;;;11.13;57.71;95266.72;5075094;28;20047;-72
2022/04/29 02:34:26;;;;;;;10.32;9.18;;;;;;;11.21;57.98;95273.94;5068893;28;20057;-72
2022/04/29 02:36:52;;;;;;;10.15;8.73;;;;;;;11.21;57.37;95268.75;5071458;28;20069;-72
2022/04/29 02:39:18;;;;;;;10.25;9.13;;;;;;;11.30;57.76;95272.38;5056175;28;20107;-72
2022/04/29 02:41:44;;;;;;;11.52;10.07;;;;;;;11.21;57.77;95283.53;5068555;28;20024;-72
2022/04/29 02:44:10;;;;;;;10.35;9.25;;;;;;;11.12;57.82;95280.69;5081348;28;20034;-72
2022/04/29 02:46:35;;;;;;;10.70;9.60;;;;;;;11.14;58.09;95278.81;5089642;28;20019;-72
2022/04/29 02:49:01;;;;;;;10.43;9.32;;;;;;;11.10;57.93;95279.97;5093510;28;20036;-72
2022/04/29 02:51:26;;;;;;;10.23;9.07;;;;;;;11.12;58.07;95285.06;5070804;28;20082;-72
2022/04/29 02:53:52;;;;;;;10.00;8.93;;;;;;;11.08;58.02;95286.22;5057748;28;20035;-72
2022/04/29 02:56:18;;;;;;;10.73;9.35;;;;;;;11.05;58.44;95289.06;5056743;28;20499;-72
2022/04/29 02:58:43;;;;;;;13.82;9.32;;;;;;;10.90;58.97;95281.50;5090081;28;20110;-72
2022/04/29 03:01:09;;;;;;;10.55;9.45;;;;;;;11.01;59.09;95287.66;5079413;28;20450;-72
2022/04/29 03:03:34;;;;;;;10.57;9.45;;;;;;;11.04;59.25;95296.06;5076396;28;20032;-72
2022/04/29 03:06:00;;;;;;;11.68;10.23;;;;;;;11.01;59.43;95292.88;5065325;28;20039;-72
2022/04/29 03:08:25;;;;;;;12.15;9.88;;;;;;;11.03;59.64;95294.41;5039800;28;20032;-72
2022/04/29 03:10:50;;;;;;;13.07;9.68;;;;;;;10.92;59.64;95279.63;5090909;28;20039;-72
2022/04/29 03:13:16;;;;;;;12.10;10.50;;;;;;;10.99;59.92;95287.78;5074031;28;20028;-72
2022/04/29 03:15:42;;;;;;;11.48;9.95;;;;;;;10.94;59.63;95289.88;5085077;28;20032;-72
2022/04/29 03:18:21;;;;;;;13.05;10.18;;;;;;;10.95;60.05;95294.16;5058738;28;20054;-72
2022/04/29 03:20:47;;;;;;;9.68;8.48;;;;;;;10.80;60.14;95295.31;5091562;28;20060;-72
2022/04/29 03:23:13;;;;;;;9.43;8.35;;;;;;;10.80;60.19;95292.72;5069913;28;20021;-72
2022/04/29 03:25:40;;;;;;;9.32;8.32;;;;;;;10.87;60.15;95299.94;5058353;28;20032;-72
2022/04/29 03:28:06;;;;;;;9.45;8.25;;;;;;;10.85;60.51;95301.81;5073622;28;20560;-72
2022/04/29 03:30:31;;;;;;;10.90;9.27;;;;;;;10.78;60.60;95312.78;5066720;28;20486;-72
2022/04/29 03:32:58;;;;;;;9.90;8.40;;;;;;;10.65;61.08;95302.50;5044824;28;20021;-72
2022/04/29 03:35:23;;;;;;;9.77;8.32;;;;;;;10.65;61.35;95297.31;5072243;28;20087;-72
2022/04/29 03:37:51;;;;;;;10.13;9.02;;;;;;;10.68;61.03;95292.72;5072605;28;20154;-72
2022/04/29 03:40:21;;;;;;;10.73;8.80;;;;;;;10.74;61.15;95294.00;5058866;28;20035;-72
2022/04/29 03:42:51;;;;;;;11.20;9.57;;;;;;;10.56;60.77;95275.47;5072402;28;20028;-72
2022/04/29 03:45:16;;;;;;;10.43;9.18;;;;;;;10.77;60.84;95296.38;5070833;28;20036;-72
2022/04/29 03:47:42;;;;;;;9.88;8.82;;;;;;;10.68;61.43;95302.28;5073258;28;20017;-72
2022/04/29 03:50:08;;;;;;;10.32;8.70;;;;;;;10.68;60.82;95302.28;5038840;28;20228;-72
2022/04/29 03:52:34;;;;;;;10.43;8.90;;;;;;;10.72;61.00;95299.31;5063169;28;20497;-72
2022/04/29 03:55:00;;;;;;;10.45;8.57;;;;;;;10.79;61.15;95299.69;5086734;28;20032;-72
2022/04/29 03:57:25;;;;;;;10.32;8.35;;;;;;;10.76;61.40;95305.13;5063246;28;20044;-72
2022/04/29 03:59:51;;;;;;;11.35;9.27;;;;;;;10.78;61.02;95308.44;5082044;28;20036;-72
2022/04/29 04:02:16;;;;;;;11.85;9.32;;;;;;;10.80;61.09;95306.53;5076700;28;20489;-72
2022/04/29 04:04:42;;;;;;;10.75;8.77;;;;;;;10.82;60.84;95303.84;5072772;28;20417;-72
2022/04/29 04:07:07;;;;;;;9.25;7.82;;;;;;;10.90;60.67;95312.69;5060102;28;20169;-72
2022/04/29 04:09:33;;;;;;;9.98;8.68;;;;;;;10.95;60.97;95309.75;5062253;28;20036;-72
2022/04/29 04:11:59;;;;;;;9.25;8.32;;;;;;;10.96;60.46;95320.03;5072884;28;20028;-72
2022/04/29 04:14:24;;;;;;;11.60;8.70;;;;;;;10.89;60.63;95308.47;5057862;28;20103;-72
2022/04/29 04:16:50;;;;;;;10.77;8.20;;;;;;;10.95;60.74;95320.16;5070627;28;20025;-72
2022/04/29 04:19:16;;;;;;;9.93;8.23;;;;;;;10.99;60.63;95313.78;5070865;28;20028;-72
2022/04/29 04:21:41;;;;;;;10.18;8.43;;;;;;;10.92;60.89;95310.81;5072843;28;20025;-72
2022/04/29 04:24:07;;;;;;;9.60;7.70;;;;;;;11.03;60.82;95323.00;5066626;28;20418;-71
2022/04/29 04:26:33;;;;;;;9.15;7.95;;;;;;;11.04;61.61;95326.44;5072245;28;20021;-71
2022/04/29 04:28:58;;;;;;;10.05;8.30;;;;;;;11.10;61.17;95325.94;5075068;28;20025;-70
2022/04/29 04:31:24;;;;;;;9.55;7.82;;;;;;;11.07;61.25;95323.59;5074605;28;20030;-70
2022/04/29 04:33:50;;;;;;;11.13;8.63;;;;;;;11.00;61.56;95320.59;5064632;28;20432;-72
2022/04/29 04:36:16;;;;;;;10.15;8.57;;;;;;;11.01;61.57;95327.47;5071369;28;20502;-71
2022/04/29 04:38:42;;;;;;;10.43;8.80;;;;;;;11.03;61.71;95327.34;5074409;28;20016;-72
2022/04/29 04:41:08;;;;;;;12.07;9.45;;;;;;;11.06;61.49;95327.97;5088422;28;20474;-70
2022/04/29 04:43:35;;;;;;;11.57;8.52;;;;;;;11.03;61.66;95329.94;5074913;28;20064;-69
2022/04/29 04:46:01;;;;;;;10.15;8.05;;;;;;;11.04;61.57;95329.03;5070234;28;20497;-69
2022/04/29 04:48:26;;;;;;;10.18;8.50;;;;;;;11.09;61.43;95327.72;5089358;28;20125;-70
2022/04/29 04:50:52;;;;;;;10.48;8.20;;;;;;;11.09;61.34;95327.72;5072672;28;20039;-70
2022/04/29 04:53:17;;;;;;;10.18;8.68;;;;;;;11.03;61.56;95322.16;5091948;28;20057;-70
2022/04/29 04:55:42;;;;;;;9.75;7.93;;;;;;;11.11;61.29;95319.78;5089125;28;20028;-70
2022/04/29 04:58:09;;;;;;;10.18;8.80;;;;;;;11.07;61.53;95321.00;5078636;28;20040;-69
2022/04/29 05:00:36;;;;;;;9.02;8.05;;;;;;;11.09;61.71;95306.94;5089194;28;20066;-70
2022/04/29 05:03:01;;;;;;;12.38;9.30;;;;;;;11.12;61.81;95317.09;5089271;28;20024;-71
2022/04/29 05:05:27;;;;;;;11.43;8.80;;;;;;;11.23;61.27;95320.63;5087441;28;20405;-71
2022/04/29 05:07:52;;;;;;;9.63;8.55;;;;;;;11.26;61.19;95312.59;5057301;28;20036;-71
2022/04/29 05:10:18;;;;;;;10.68;8.68;;;;;;;11.35;61.22;95317.91;5088555;28;20508;-71
2022/04/29 05:12:45;;;;;;;10.82;8.63;;;;;;;11.46;61.33;95309.25;5080561;28;20038;-71
2022/04/29 05:15:11;;;;;;;11.70;9.40;;;;;;;11.55;61.30;95318.94;5089577;28;20036;-71
2022/04/29 05:17:39;;;;;;;11.00;8.60;;;;;;;11.54;60.75;95316.47;5088700;28;20103;-71
2022/04/29 05:20:05;;;;;;;14.70;9.27;;;;;;;11.59;60.91;95316.94;5072236;28;20513;-71
2022/04/29 05:22:30;;;;;;;10.60;9.50;;;;;;;11.59;60.95;95316.94;5071959;28;20055;-71
2022/04/29 05:24:56;;;;;;;15.05;12.77;;;;;;;11.64;60.45;95322.59;5071615;28;20071;-71
2022/04/29 05:27:22;;;;;;;14.07;10.77;;;;;;;11.63;60.57;95326.97;5088490;28;20093;-70
2022/04/29 05:29:47;;;;;;;14.20;11.75;;;;;;;11.63;60.98;95326.97;5088595;28;20028;-71
2022/04/29 05:32:13;;;;;;;14.50;11.10;;;;;;;11.57;61.09;95324.84;5090100;28;20035;-71
2022/04/29 05:34:38;;;;;;;11.90;10.65;;;;;;;11.57;60.81;95308.41;5090317;28;20067;-71
2022/04/29 05:37:04;;;;;;;15.35;12.55;;;;;;;11.65;60.70;95326.03;5091708;28;20013;-71
2022/04/29 05:42:18;;;;;;;15.10;12.30;;;;;;;11.56;61.10;95319.75;5076250;28;20500;-71
2022/04/29 05:44:43;;;;;;;15.70;12.88;;;;;;;11.53;60.97;95313.06;5074261;28;20092;-70
2022/04/29 05:47:09;;;;;;;13.98;11.75;;;;;;;11.65;61.15;95320.84;5056726;28;20481;-70
2022/04/29 05:49:34;;;;;;;11.30;9.80;;;;;;;11.66;60.59;95319.88;5056614;28;20129;-71
2022/04/29 05:52:03;;;;;;;14.57;11.60;;;;;;;11.71;60.56;95328.16;5090206;28;20024;-71
2022/04/29 05:54:29;;;;;;;15.73;12.50;;;;;;;11.71;60.70;95325.56;5073595;28;20063;-70
2022/04/29 05:56:54;;;;;;;11.95;10.57;;;;;;;11.73;60.54;95326.22;5090069;28;20055;-70
2022/04/29 05:59:20;;;;;;;20.38;16.10;;;;;;;11.79;60.52;95333.59;5090049;28;20035;-71
2022/04/29 06:01:45;;;;;;;14.57;11.65;;;;;;;11.68;60.28;95329.22;5089974;28;20028;-70
2022/04/29 06:04:11;;;;;;;14.82;12.52;;;;;;;11.79;60.18;95333.59;5073124;28;20040;-71
2022/04/29 06:06:37;;;;;;;22.55;17.80;;;;;;;11.80;60.51;95338.66;5056521;28;20024;-71
2022/04/29 06:09:02;;;;;;;18.85;13.15;;;;;;;11.85;59.81;95326.13;5089809;28;20024;-70
2022/04/29 06:11:28;;;;;;;19.23;14.90;;;;;;;11.88;60.18;95343.28;5091146;28;20467;-71
2022/04/29 06:13:53;;;;;;;12.43;11.10;;;;;;;11.85;60.48;95346.09;5089788;28;20032;-70
2022/04/29 06:16:19;;;;;;;13.38;11.82;;;;;;;11.94;60.47;95350.59;5091073;28;20559;-70
2022/04/29 06:18:45;;;;;;;11.57;10.00;;;;;;;11.89;60.15;95347.53;5089746;28;20043;-71
2022/04/29 06:21:10;;;;;;;13.15;10.10;;;;;;;11.97;60.28;95345.16;5072607;28;20028;-71
2022/04/29 06:23:36;;;;;;;10.75;9.57;;;;;;;12.03;59.76;95341.22;5090926;28;20020;-71
2022/04/29 06:26:01;;;;;;;12.50;11.23;;;;;;;12.01;59.58;95336.16;5091016;28;20081;-70
2022/04/29 06:28:27;;;;;;;11.05;9.93;;;;;;;12.05;59.87;95347.16;5056195;28;20033;-71
2022/04/29 06:30:52;;;;;;;12.05;9.77;;;;;;;12.12;60.25;95342.25;5089832;28;20081;-71
2022/04/29 06:33:17;;;;;;;14.23;11.32;;;;;;;12.14;60.29;95346.41;5089710;28;20509;-71
2022/04/29 06:35:43;;;;;;;13.23;11.82;;;;;;;12.19;59.82;95349.47;5090888;28;20048;-71
2022/04/29 06:38:12;;;;;;;12.57;9.63;;;;;;;12.20;59.79;95347.69;5089662;28;20078;-71
2022/04/29 06:40:37;;;;;;;14.43;11.15;;;;;;;12.27;59.15;95352.28;5072692;28;20117;-71
2022/04/29 06:43:03;;;;;;;13.90;12.40;;;;;;;12.28;59.22;95347.88;5089596;28;20111;-71
2022/04/29 06:45:28;;;;;;;17.30;13.38;;;;;;;12.33;59.06;95350.13;5091162;28;20032;-71
2022/04/29 06:47:54;;;;;;;15.30;13.02;;;;;;;12.35;59.57;95343.03;5090769;28;20081;-71
2022/04/29 06:50:19;;;;;;;10.77;9.68;;;;;;;12.45;59.09;95349.13;5091026;28;20418;-71
2022/04/29 06:52:45;;;;;;;12.43;11.13;;;;;;;12.50;58.90;95353.00;5089567;28;20040;-71
2022/04/29 06:55:10;;;;;;;12.60;11.23;;;;;;;12.56;58.39;95345.63;5090924;28;20409;-71
2022/04/29 06:57:35;;;;;;;13.60;11.80;;;;;;;12.55;57.95;95347.41;5089522;28;20036;-71
2022/04/29 07:00:01;;;;;;;10.48;9.40;;;;;;;12.61;57.88;95341.69;5072646;28;20038;-71
2022/04/29 07:02:26;;;;;;;9.38;8.38;;;;;;;12.67;57.84;95346.41;5072613;28;20032;-71
2022/04/29 07:04:55;;;;;;;10.23;9.18;;;;;;;12.74;57.75;95344.94;5072369;28;20032;-72
2022/04/29 07:07:20;;;;;;;10.23;8.60;;;;;;;12.79;57.49;95347.19;5072959;28;20028;-71
2022/04/29 07:09:46;;;;;;;10.90;9.80;;;;;;;12.93;57.16;95346.03;5089197;28;20028;-71
2022/04/29 07:12:11;;;;;;;11.70;10.50;;;;;;;12.92;57.16;95333.94;5089342;28;20036;-71
2022/04/29 07:14:36;;;;;;;14.85;10.70;;;;;;;13.05;56.83;95338.94;5072518;28;20106;-71
2022/04/29 07:17:02;;;;;;;11.02;9.90;;;;;;;13.01;56.32;95335.78;5090520;28;20482;-71
2022/04/29 07:19:27;;;;;;;10.30;9.20;;;;;;;13.08;56.72;95338.69;5089447;28;20032;-71
2022/04/29 07:21:53;;;;;;;10.25;9.15;;;;;;;13.11;56.71;95341.03;5089115;28;20035;-71
2022/04/29 07:24:18;;;;;;;11.02;9.05;;;;;;;13.19;56.33;95338.59;5090442;28;20086;-71
2022/04/29 07:26:44;;;;;;;11.00;9.00;;;;;;;13.20;55.94;95342.84;5089209;28;20040;-71
2022/04/29 07:29:10;;;;;;;12.02;8.70;;;;;;;13.26;55.77;95334.56;5055549;28;20081;-71
2022/04/29 07:31:35;;;;;;;11.15;8.95;;;;;;;13.37;55.57;95341.44;5072432;28;20028;-71
2022/04/29 07:34:01;;;;;;;10.93;8.90;;;;;;;13.46;55.42;95343.28;5092760;28;20490;-71
2022/04/29 07:41:54;;;;;;;9.57;8.57;;;;;;;13.79;54.12;95338.69;5092915;28;20039;-71
2022/04/29 07:44:19;;;;;;;9.88;8.88;;;;;;;13.82;53.75;95334.06;5093900;28;20039;-71
2022/04/29 07:46:46;;;;;;;13.25;8.95;;;;;;;13.85;54.16;95335.56;5075745;28;20095;-71
2022/04/29 07:49:12;;;;;;;13.65;9.40;;;;;;;13.96;53.16;95343.28;5075695;28;20043;-72
2022/04/29 07:51:37;;;;;;;11.13;9.38;;;;;;;14.03;53.15;95338.34;5075603;28;20028;-73
2022/04/29 07:54:06;;;;;;;10.32;8.57;;;;;;;14.07;52.48;95334.50;5093679;28;20028;-71
2022/04/29 07:56:32;;;;;;;9.32;8.32;;;;;;;14.10;51.99;95334.25;5075546;28;20024;-71
2022/04/29 07:58:58;;;;;;;11.07;8.75;;;;;;;14.19;52.18;95330.81;5075435;28;20550;-71
2022/04/29 08:01:25;;;;;;;9.00;8.10;;;;;;;14.26;52.08;95329.31;5058825;28;20161;-71
2022/04/29 08:03:54;;;;;;;13.65;8.70;;;;;;;14.39;51.82;95325.59;5075602;28;20469;-72
2022/04/29 08:06:20;;;;;;;9.13;8.18;;;;;;;14.39;50.27;95322.97;5075722;28;20501;-71
2022/04/29 08:08:45;;;;;;;9.40;8.00;;;;;;;14.46;51.69;95330.13;5092128;28;20031;-71
2022/04/29 08:11:11;;;;;;;9.60;8.60;;;;;;;14.57;51.29;95321.34;5075216;28;20046;-71
2022/04/29 08:13:37;;;;;;;9.60;8.60;;;;;;;14.64;50.97;95325.03;5075119;28;20086;-72
2022/04/29 08:16:03;;;;;;;9.45;8.43;;;;;;;14.69;50.12;95320.22;5091942;28;20409;-71
2022/04/29 08:18:28;;;;;;;8.93;8.05;;;;;;;14.77;50.58;95321.31;5092240;28;20028;-72
2022/04/29 08:20:54;;;;;;;9.73;8.52;;;;;;;14.86;50.36;95318.69;5093477;28;20043;-71
2022/04/29 08:23:20;;;;;;;10.57;8.90;;;;;;;14.96;50.31;95324.72;5091922;28;20233;-71
2022/04/29 08:25:45;;;;;;;9.93;8.93;;;;;;;14.97;50.05;95315.91;5091885;28;20554;-71
2022/04/29 08:28:11;;;;;;;10.13;8.68;;;;;;;15.01;49.71;95318.22;5074987;28;20497;-71
2022/04/29 08:30:36;;;;;;;7.88;6.85;;;;;;;15.05;48.56;95320.44;5091609;28;20097;-71
2022/04/29 08:33:02;;;;;;;8.23;6.93;;;;;;;15.04;47.81;95313.53;5091712;28;20081;-71
2022/04/29 08:35:28;;;;;;;8.05;7.22;;;;;;;14.98;46.42;95304.47;5074617;28;20048;-72
2022/04/29 08:38:00;;;;;;;8.57;7.00;;;;;;;15.04;47.13;95313.53;5074715;28;20085;-71
2022/04/29 08:40:27;;;;;;;7.05;6.35;;;;;;;15.05;47.25;95307.34;5091600;28;20055;-69
2022/04/29 08:42:53;;;;;;;8.85;7.57;;;;;;;14.97;46.61;95297.59;5092664;28;20166;-69
2022/04/29 08:45:19;;;;;;;8.52;7.03;;;;;;;14.97;45.97;95302.00;5091241;28;20493;-69
2022/04/29 08:47:45;;;;;;;7.93;7.15;;;;;;;14.92;48.11;95298.97;5092650;28;20081;-70
2022/04/29 08:50:18;;;;;;;9.45;7.15;;;;;;;14.96;46.79;95295.94;5074634;28;20070;-70
2022/04/29 08:52:44;;;;;;;9.98;7.72;;;;;;;14.98;46.39;95285.31;5058224;28;20498;-70
2022/04/29 09:00:41;;;;;;;7.53;6.80;;;;;;;15.23;47.78;95289.09;5077502;28;20105;-70
2022/04/29 09:03:14;;;;;;;7.97;7.07;;;;;;;15.31;47.75;95289.19;5074670;28;20112;-70
2022/04/29 09:05:43;;;;;;;11.05;8.90;;;;;;;15.28;48.14;95299.13;5074272;28;20064;-70
2022/04/29 09:08:11;;;;;;;10.02;8.05;;;;;;;15.19;48.17;95287.75;5092159;28;20028;-70
2022/04/29 09:10:38;;;;;;;8.38;7.57;;;;;;;15.30;48.30;95291.97;5091095;28;20036;-70
2022/04/29 09:13:10;;;;;;;9.93;7.70;;;;;;;15.25;47.98;95284.53;5074163;28;20048;-70
2022/04/29 09:15:36;;;;;;;9.15;8.05;;;;;;;15.31;47.88;95297.06;5090999;28;20032;-70
2022/04/29 09:18:02;;;;;;;9.85;7.57;;;;;;;15.20;47.18;95282.34;5090647;28;20462;-70
2022/04/29 09:20:28;;;;;;;9.25;8.02;;;;;;;15.32;47.36;95295.25;5090599;28;20408;-70
2022/04/29 09:22:53;;;;;;;12.15;9.07;;;;;;;15.34;47.45;95295.94;5091930;28;20020;-70
2022/04/29 09:25:18;;;;;;;9.48;7.65;;;;;;;15.37;46.56;95293.03;5092173;28;20485;-70
2022/04/29 09:28:04;;;;;;;13.60;7.63;;;;;;;15.38;46.24;95284.22;5090680;28;20028;-70
2022/04/29 09:30:33;;;;;;;8.65;7.75;;;;;;;15.36;46.63;95286.16;5057116;28;20051;-70
2022/04/29 09:32:59;;;;;;;8.98;8.07;;;;;;;15.32;46.41;95282.16;5091700;28;20508;-70
2022/04/29 09:35:34;;;;;;;10.38;8.80;;;;;;;15.32;46.55;95287.41;5091655;28;20067;-71
2022/04/29 09:40:49;;;;;;;9.52;6.47;;;;;;;15.28;46.26;95289.50;5076535;28;20113;-69
2022/04/29 09:43:14;;;;;;;8.32;7.13;;;;;;;15.32;46.92;95287.41;5090421;28;20078;-70
2022/04/29 09:45:40;;;;;;;8.65;6.78;;;;;;;15.34;46.51;95282.84;5073403;28;20473;-70
2022/04/29 09:48:08;;;;;;;9.60;6.80;;;;;;;15.42;46.48;95281.16;5056719;28;20032;-70
2022/04/29 09:50:47;;;;;;;7.55;6.75;;;;;;;15.39;46.28;95286.69;5091797;28;20032;-70
2022/04/29 09:53:20;;;;;;;7.45;6.65;;;;;;;15.43;46.26;95281.97;5091365;28;20036;-70
2022/04/29 09:56:08;;;;;;;9.20;7.18;;;;;;;15.54;46.60;95278.34;5089719;28;20024;-70
2022/04/29 09:58:34;;;;;;;8.02;7.03;;;;;;;15.58;45.27;95284.94;5090164;28;20536;-70
2022/04/29 10:01:04;;;;;;;8.63;6.50;;;;;;;15.62;44.84;95279.25;5073116;28;20032;-70
2022/04/29 10:03:30;;;;;;;8.57;7.47;;;;;;;15.64;45.13;95274.69;5073387;28;20065;-70
2022/04/29 10:05:57;;;;;;;7.68;6.47;;;;;;;15.78;44.79;95277.84;5073326;28;20032;-70
2022/04/29 10:08:26;;;;;;;7.55;6.85;;;;;;;15.88;43.89;95270.75;5089991;28;20035;-71
2022/04/29 10:10:52;;;;;;;11.30;7.20;;;;;;;15.93;44.85;95267.66;5073677;28;20194;-70
2022/04/29 10:13:18;;;;;;;12.05;6.68;;;;;;;16.00;44.68;95272.16;5089879;28;20077;-70
2022/04/29 10:15:46;;;;;;;9.23;6.75;;;;;;;16.02;44.95;95256.31;5073249;28;20111;-70
2022/04/29 10:23:41;;;;;;;8.68;6.80;;;;;;;16.29;43.86;95256.19;5075973;28;20421;-70
2022/04/29 10:26:06;;;;;;;8.60;7.30;;;;;;;16.31;44.04;95261.28;5090820;28;20028;-70
2022/04/29 10:28:32;;;;;;;7.50;6.68;;;;;;;16.32;43.07;95252.44;5072816;28;20032;-70
2022/04/29 10:31:09;;;;;;;8.20;6.68;;;;;;;16.34;43.69;95254.94;5056083;28;20089;-70
2022/04/29 10:33:36;;;;;;;8.82;6.57;;;;;;;16.38;45.07;95258.88;5089696;28;20020;-71
2022/04/29 10:36:06;;;;;;;8.68;6.80;;;;;;;16.33;44.20;95263.78;5090922;28;20501;-70
2022/04/29 10:38:39;;;;;;;7.47;6.63;;;;;;;16.33;45.72;95256.72;5056166;28;20086;-71
2022/04/29 10:41:21;;;;;;;7.72;6.68;;;;;;;16.28;43.48;95261.59;5089608;28;20045;-69
2022/04/29 10:43:49;;;;;;;8.40;7.40;;;;;;;16.34;43.36;95247.88;5074469;28;20081;-70
2022/04/29 10:46:21;;;;;;;7.68;6.85;;;;;;;16.43;43.25;95248.75;5090667;28;20028;-70
2022/04/29 10:48:48;;;;;;;7.78;6.75;;;;;;;16.47;42.85;95240.44;5090781;28;20028;-70
2022/04/29 10:51:17;;;;;;;7.68;6.82;;;;;;;16.44;43.09;95232.06;5089511;28;20062;-70
2022/04/29 10:53:45;;;;;;;7.43;6.72;;;;;;;16.49;42.26;95238.50;5089739;28;20054;-70
2022/04/29 10:56:29;;;;;;;7.78;7.07;;;;;;;16.43;42.69;95230.41;5089499;28;20024;-70
2022/04/29 10:58:59;;;;;;;7.95;6.78;;;;;;;16.47;42.27;95235.22;5090494;28;20043;-70
2022/04/29 11:01:24;;;;;;;8.23;7.00;;;;;;;16.58;43.47;95233.31;5072581;28;20492;-70
2022/04/29 11:03:50;;;;;;;7.50;6.68;;;;;;;16.71;42.54;95223.22;5090612;28;20035;-69
2022/04/29 11:06:15;;;;;;;7.55;6.72;;;;;;;16.74;41.62;95223.75;5072394;28;20028;-70
2022/04/29 11:08:42;;;;;;;8.63;6.65;;;;;;;16.80;41.22;95219.72;5092871;28;20033;-70
2022/04/29 11:11:07;;;;;;;9.38;6.85;;;;;;;16.88;41.88;95224.16;5076261;28;20513;-69
2022/04/29 11:13:37;;;;;;;8.57;7.57;;;;;;;16.93;43.23;95214.03;5093190;28;20028;-70
2022/04/29 11:16:13;;;;;;;7.90;7.07;;;;;;;16.97;42.58;95216.19;5076342;28;20512;-69
2022/04/29 11:18:40;;;;;;;7.60;6.80;;;;;;;17.01;41.78;95214.06;5093184;28;20319;-70
2022/04/29 11:26:52;;;;;;;7.72;6.93;;;;;;;17.13;43.63;95193.63;5094182;28;20074;-70
2022/04/29 11:29:17;;;;;;;7.75;7.05;;;;;;;17.16;41.33;95199.41;5094287;28;20028;-70
2022/04/29 11:31:43;;;;;;;7.85;7.05;;;;;;;17.22;41.39;95195.31;5075960;28;20081;-70
2022/04/29 11:34:09;;;;;;;8.40;6.47;;;;;;;17.29;39.95;95198.94;5092592;28;20043;-69
2022/04/29 11:36:35;;;;;;;7.65;6.95;;;;;;;17.29;41.24;95185.81;5094067;28;20115;-69
2022/04/29 11:39:03;;;;;;;7.60;6.88;;;;;;;17.25;42.00;95192.38;5092643;28;20040;-70
2022/04/29 11:41:29;;;;;;;7.97;7.20;;;;;;;17.27;40.90;95184.31;5093964;28;20027;-69
2022/04/29 11:43:55;;;;;;;8.45;7.35;;;;;;;17.30;40.56;95184.84;5092574;28;20530;-70
2022/04/29 11:46:21;;;;;;;7.60;6.88;;;;;;;17.30;39.48;95184.84;5094040;28;20058;-69
2022/04/29 11:48:57;;;;;;;9.27;7.60;;;;;;;17.25;41.80;95179.25;5075687;28;20059;-69
2022/04/29 11:51:23;;;;;;;12.48;7.47;;;;;;;17.22;41.45;95190.06;5092709;28;20058;-70